createdAt,value
2023-01-11T00:02:43.408Z,99222.53
2023-01-11T00:05:12.124Z,99215.47
2023-01-11T00:07:40.988Z,99209.75
2023-01-11T00:13:04.804Z,99201.47
2023-01-11T00:15:36.371Z,99209.03
2023-01-11T00:18:05.007Z,99200.78
2023-01-11T00:20:33.108Z,99194.59
2023-01-11T00:23:03.250Z,99191.09
2023-01-11T00:25:31.106Z,99189.97
2023-01-11T00:27:59.349Z,99180.19
2023-01-11T00:30:27.546Z,99188.59
2023-01-11T00:32:58.227Z,99180.16
2023-01-11T00:35:27.346Z,99173.91
2023-01-11T00:37:55.505Z,99181.38
2023-01-11T00:40:24.335Z,99165.13
2023-01-11T00:43:10.873Z,99175.41
2023-01-11T00:45:57.867Z,99169.53
2023-01-11T00:48:27.429Z,99159.72
2023-01-11T00:50:57.321Z,99161.81
2023-01-11T00:53:27.918Z,99168.19
2023-01-11T00:55:55.751Z,99156.69
2023-01-11T00:58:23.623Z,99149.81
2023-01-11T01:00:52.283Z,99166.88
2023-01-11T01:03:20.928Z,99169.66
2023-01-11T01:05:48.831Z,99169.66
2023-01-11T01:08:18.648Z,99172.34
2023-01-11T01:10:46.478Z,99167.72
2023-01-11T01:13:33.550Z,99174.97
2023-01-11T01:16:02.954Z,99162.75
2023-01-11T01:18:31.262Z,99167.59
2023-01-11T01:20:59.063Z,99160.31
2023-01-11T01:23:26.916Z,99166.09
2023-01-11T01:25:54.704Z,99168.94
2023-01-11T01:28:23.243Z,99182.69
2023-01-11T01:30:51.940Z,99174.59
2023-01-11T01:33:24.255Z,99176.53
2023-01-11T01:35:52.154Z,99174.47
2023-01-11T01:38:20.109Z,99174.47
2023-01-11T01:40:48.746Z,99169.63
2023-01-11T01:43:18.169Z,99171.00
2023-01-11T01:46:11.413Z,99173.34
2023-01-11T01:48:41.852Z,99172.00
2023-01-11T01:51:15.359Z,99169.00
2023-01-11T01:53:47.623Z,99165.22
2023-01-11T01:56:29.322Z,99170.44
2023-01-11T01:59:02.748Z,99169.47
2023-01-11T02:01:50.409Z,99158.03
2023-01-11T02:04:24.932Z,99166.81
2023-01-11T02:07:00.260Z,99163.13
2023-01-11T02:09:50.763Z,99159.59
2023-01-11T02:15:12.955Z,99155.41
2023-01-11T02:17:41.686Z,99155.75
2023-01-11T02:20:27.242Z,99143.88
2023-01-11T02:23:07.337Z,99139.97
2023-01-11T02:26:16.407Z,99136.63
2023-01-11T02:28:56.125Z,99131.88
2023-01-11T02:31:39.761Z,99133.78
2023-01-11T02:34:19.647Z,99135.91
2023-01-11T02:37:06.277Z,99133.28
2023-01-11T02:39:52.804Z,99141.13
2023-01-11T02:42:52.439Z,99141.84
2023-01-11T02:45:30.783Z,99148.41
2023-01-11T02:48:20.289Z,99145.47
2023-01-11T02:51:05.953Z,99144.31
2023-01-11T02:53:38.257Z,99136.91
2023-01-11T02:56:13.119Z,99143.94
2023-01-11T02:58:46.338Z,99135.03
2023-01-11T03:01:15.170Z,99132.09
2023-01-11T03:03:43.013Z,99124.66
2023-01-11T03:06:18.317Z,99120.97
2023-01-11T03:08:51.753Z,99114.06
2023-01-11T03:12:04.405Z,99123.19
2023-01-11T03:15:07.264Z,99122.22
2023-01-11T03:21:12.349Z,99101.19
2023-01-11T03:24:02.320Z,99111.94
2023-01-11T03:26:36.295Z,99099.31
2023-01-11T03:29:42.115Z,99101.25
2023-01-11T03:32:30.885Z,99093.97
2023-01-11T03:35:38.646Z,99098.03
2023-01-11T03:38:24.341Z,99084.47
2023-01-11T03:41:05.329Z,99073.13
2023-01-11T03:43:39.287Z,99073.97
2023-01-11T03:46:34.559Z,99083.41
2023-01-11T03:49:11.363Z,99071.78
2023-01-11T03:51:43.080Z,99083.88
2023-01-11T03:54:20.677Z,99081.81
2023-01-11T03:57:09.911Z,99102.91
2023-01-11T03:59:39.293Z,99093.72
2023-01-11T04:02:40.144Z,99078.84
2023-01-11T04:05:10.563Z,99079.34
2023-01-11T04:07:38.608Z,99085.81
2023-01-11T04:10:07.154Z,99072.28
2023-01-11T04:12:36.268Z,99088.34
2023-01-11T04:15:05.616Z,99082.59
2023-01-11T04:17:33.544Z,99077.19
2023-01-11T04:20:03.067Z,99080.78
2023-01-11T04:22:31.265Z,99082.41
2023-01-11T04:24:59.112Z,99083.75
2023-01-11T04:27:52.373Z,99084.53
2023-01-11T04:30:20.487Z,99089.19
2023-01-11T04:35:42.040Z,99090.25
2023-01-11T04:38:09.864Z,99103.13
2023-01-11T04:40:37.687Z,99094.97
2023-01-11T04:43:07.005Z,99087.47
2023-01-11T04:45:34.942Z,99091.28
2023-01-11T04:48:03.381Z,99074.00
2023-01-11T04:50:32.495Z,99083.25
2023-01-11T04:53:00.960Z,99084.59
2023-01-11T04:55:28.889Z,99092.22
2023-01-11T04:58:23.288Z,99071.84
2023-01-11T05:00:52.048Z,99084.06
2023-01-11T05:03:20.018Z,99076.47
2023-01-11T05:06:01.436Z,99081.06
2023-01-11T05:08:30.137Z,99063.47
2023-01-11T05:11:00.456Z,99073.25
2023-01-11T05:13:46.255Z,99065.41
2023-01-11T05:16:23.761Z,99062.13
2023-01-11T05:18:59.289Z,99068.91
2023-01-11T05:21:33.379Z,99076.25
2023-01-11T05:24:07.283Z,99069.19
2023-01-11T05:26:41.145Z,99071.34
2023-01-11T05:29:13.077Z,99070.81
2023-01-11T05:31:41.769Z,99070.53
2023-01-11T05:34:12.755Z,99067.28
2023-01-11T05:36:40.923Z,99071.03
2023-01-11T05:39:08.909Z,99072.16
2023-01-11T05:41:36.997Z,99066.47
2023-01-11T05:44:24.297Z,99056.69
2023-01-11T05:46:52.565Z,99056.69
2023-01-11T05:49:20.425Z,99059.94
2023-01-11T05:52:15.259Z,99049.69
2023-01-11T05:54:43.105Z,99046.19
2023-01-11T05:57:13.532Z,99055.13
2023-01-11T05:59:41.509Z,99046.19
2023-01-11T06:02:09.525Z,99055.94
2023-01-11T06:04:39.327Z,99052.66
2023-01-11T06:07:09.882Z,99055.66
2023-01-11T06:09:37.758Z,99047.81
2023-01-11T06:12:05.835Z,99049.13
2023-01-11T06:14:37.823Z,99045.09
2023-01-11T06:17:59.317Z,99050.22
2023-01-11T06:20:27.983Z,99055.66
2023-01-11T06:22:56.980Z,99053.22
2023-01-11T06:25:26.248Z,99044.00
2023-01-11T06:27:57.199Z,99041.56
2023-01-11T06:30:25.950Z,99040.19
2023-01-11T06:32:53.900Z,99026.94
2023-01-11T06:35:24.959Z,99028.28
2023-01-11T06:37:57.232Z,99027.22
2023-01-11T06:40:25.957Z,99035.88
2023-01-11T06:42:55.225Z,99036.69
2023-01-11T06:45:23.134Z,99038.06
2023-01-11T06:47:51.970Z,99041.31
2023-01-11T06:50:20.281Z,99026.13
2023-01-11T06:52:59.341Z,99034.50
2023-01-11T06:55:29.303Z,99023.13
2023-01-11T06:57:57.701Z,99020.16
2023-01-11T07:00:25.647Z,99029.91
2023-01-11T07:02:53.973Z,99038.88
2023-01-11T07:05:21.926Z,99038.56
2023-01-11T07:07:50.037Z,99038.56
2023-01-11T07:10:17.978Z,99049.16
2023-01-11T07:12:45.819Z,99050.25
2023-01-11T07:15:15.067Z,99047.28
2023-01-11T07:17:48.323Z,99035.59
2023-01-11T07:20:17.242Z,99051.06
2023-01-11T07:22:45.059Z,99055.66
2023-01-11T07:25:13.602Z,99055.94
2023-01-11T07:27:42.156Z,99047.53
2023-01-11T07:30:10.534Z,99059.97
2023-01-11T07:35:34.289Z,99055.63
2023-01-11T07:38:07.677Z,99057.28
2023-01-11T07:40:36.807Z,99052.13
2023-01-11T07:43:19.134Z,99058.09
2023-01-11T07:45:49.871Z,99050.22
2023-01-11T07:48:21.326Z,99044.53
2023-01-11T07:50:50.321Z,99042.59
2023-01-11T07:53:19.096Z,99046.41
2023-01-11T07:55:48.972Z,99045.06
2023-01-11T07:58:16.930Z,99043.44
2023-01-11T08:00:46.132Z,99045.03
2023-01-11T08:03:15.344Z,99042.34
2023-01-11T08:05:43.239Z,99029.06
2023-01-11T08:08:11.230Z,99028.75
2023-01-11T08:10:41.258Z,99030.94
2023-01-11T08:13:31.920Z,99032.84
2023-01-11T08:16:03.363Z,99020.34
2023-01-11T08:18:31.941Z,99021.16
2023-01-11T08:21:03.294Z,99020.88
2023-01-11T08:23:31.297Z,99022.75
2023-01-11T08:25:59.277Z,99014.91
2023-01-11T08:28:28.049Z,99007.53
2023-01-11T08:30:55.990Z,98995.84
2023-01-11T08:33:26.103Z,99013.50
2023-01-11T08:35:53.924Z,99008.06
2023-01-11T08:38:22.381Z,99007.22
2023-01-11T08:40:50.782Z,99005.56
2023-01-11T08:43:18.699Z,99004.50
2023-01-11T08:45:46.573Z,99003.38
2023-01-11T08:48:16.051Z,98999.00
2023-01-11T08:50:45.005Z,99003.06
2023-01-11T08:53:13.375Z,99004.88
2023-01-11T08:55:44.539Z,99007.88
2023-01-11T08:58:12.468Z,99006.28
2023-01-11T09:00:40.331Z,99007.47
2023-01-11T09:03:08.905Z,99012.03
2023-01-11T09:05:36.860Z,99003.31
2023-01-11T09:08:05.947Z,99003.59
2023-01-11T09:13:28.346Z,99010.47
2023-01-11T09:15:59.199Z,99014.81
2023-01-11T09:18:27.327Z,99017.47
2023-01-11T09:20:55.600Z,99008.75
2023-01-11T09:23:23.953Z,99012.56
2023-01-11T09:25:52.312Z,99017.16
2023-01-11T09:28:20.176Z,99014.22
2023-01-11T09:30:48.014Z,99006.59
2023-01-11T09:33:15.925Z,99012.13
2023-01-11T09:35:46.186Z,99001.22
2023-01-11T09:38:14.071Z,99005.81
2023-01-11T09:41:20.654Z,99013.09
2023-01-11T09:43:59.549Z,99012.25
2023-01-11T09:46:29.652Z,99009.84
2023-01-11T09:48:59.619Z,98996.25
2023-01-11T09:51:35.385Z,98997.53
2023-01-11T09:54:06.261Z,98991.25
2023-01-11T09:56:42.662Z,98989.38
2023-01-11T09:59:20.912Z,98983.66
2023-01-11T10:01:51.390Z,98979.00
2023-01-11T10:05:03.781Z,98988.50
2023-01-11T10:07:32.168Z,98978.06
2023-01-11T10:18:31.013Z,98964.63
2023-01-11T10:19:40.972Z,98965.13
2023-01-11T10:22:19.659Z,98955.38
2023-01-11T10:24:54.037Z,98949.06
2023-01-11T10:27:56.902Z,98934.94
2023-01-11T10:30:54.393Z,98939.84
2023-01-11T10:33:50.064Z,98931.56
2023-01-11T10:40:06.550Z,98903.59
2023-01-11T10:42:52.260Z,98901.16
2023-01-11T10:45:51.496Z,98897.88
2023-01-11T10:48:41.994Z,98895.63
2023-01-11T10:51:38.791Z,98882.94
2023-01-11T10:54:14.403Z,98879.47
2023-01-11T10:57:01.970Z,98872.59
2023-01-11T10:59:46.720Z,98873.41
2023-01-11T11:02:28.679Z,98875.47
2023-01-11T11:05:18.859Z,98877.09
2023-01-11T11:11:06.261Z,98863.03
2023-01-11T11:13:56.724Z,98853.50
2023-01-11T11:16:24.635Z,98852.41
2023-01-11T11:18:58.460Z,98854.28
2023-01-11T11:21:33.333Z,98854.38
2023-01-11T11:24:13.062Z,98850.31
2023-01-11T11:26:47.411Z,98834.59
2023-01-11T11:29:22.579Z,98835.22
2023-01-11T11:31:51.163Z,98836.59
2023-01-11T11:34:21.953Z,98828.44
2023-01-11T11:36:51.902Z,98815.78
2023-01-11T11:39:23.356Z,98820.94
2023-01-11T11:41:58.308Z,98812.25
2023-01-11T11:44:28.173Z,98816.31
2023-01-11T11:52:46.453Z,98811.56
2023-01-11T11:55:15.341Z,98805.63
2023-01-11T11:57:44.150Z,98798.13
2023-01-11T12:00:29.352Z,98799.59
2023-01-11T12:03:12.863Z,98802.25
2023-01-11T12:08:47.300Z,98779.50
2023-01-11T12:11:22.520Z,98772.44
2023-01-11T12:14:03.840Z,98754.97
2023-01-11T12:16:39.547Z,98772.69
2023-01-11T12:19:33.334Z,98758.66
2023-01-11T12:22:29.042Z,98750.03
2023-01-11T12:25:02.773Z,98746.69
2023-01-11T12:27:55.354Z,98746.69
2023-01-11T12:30:34.737Z,98744.19
2023-01-11T12:33:28.853Z,98735.97
2023-01-11T12:36:32.380Z,98733.25
2023-01-11T12:39:26.233Z,98726.50
2023-01-11T12:42:51.992Z,98721.22
2023-01-11T12:45:55.979Z,98711.06
2023-01-11T12:51:42.501Z,98709.06
2023-01-11T12:54:31.896Z,98705.53
2023-01-11T13:00:36.347Z,98683.66
2023-01-11T13:03:22.238Z,98680.31
2023-01-11T13:06:16.293Z,98681.16
2023-01-11T13:09:08.903Z,98661.66
2023-01-11T13:11:58.344Z,98670.03
2023-01-11T13:14:34.812Z,98654.53
2023-01-11T13:17:22.373Z,98664.81
2023-01-11T13:20:17.724Z,98648.06
2023-01-11T13:22:56.329Z,98661.78
2023-01-11T13:25:30.370Z,98657.34
2023-01-11T13:28:03.686Z,98650.66
2023-01-11T13:30:32.872Z,98637.97
2023-01-11T13:33:24.322Z,98641.81
2023-01-11T13:36:04.039Z,98643.13
2023-01-11T13:38:35.386Z,98636.88
2023-01-11T13:41:27.912Z,98623.25
2023-01-11T13:44:27.372Z,98631.91
2023-01-11T13:47:01.934Z,98623.66
2023-01-11T13:53:10.957Z,98632.72
2023-01-11T13:55:56.405Z,98628.28
2023-01-11T14:01:42.342Z,98633.53
2023-01-11T14:04:27.457Z,98632.09
2023-01-11T14:06:57.325Z,98631.72
2023-01-11T14:09:40.508Z,98624.25
2023-01-11T14:12:32.337Z,98636.44
2023-01-11T14:15:19.941Z,98625.47
2023-01-11T14:18:09.374Z,98635.13
2023-01-11T14:20:43.313Z,98642.31
2023-01-11T14:23:17.395Z,98649.97
2023-01-11T14:25:54.145Z,98655.63
2023-01-11T14:28:24.098Z,98650.06
2023-01-11T14:31:30.705Z,98654.72
2023-01-11T14:34:15.356Z,98656.34
2023-01-11T14:37:02.118Z,98656.13
2023-01-11T14:39:54.620Z,98656.13
2023-01-11T14:43:00.798Z,98642.81
2023-01-11T14:45:47.070Z,98658.16
2023-01-11T14:48:34.180Z,98652.09
2023-01-11T14:51:12.300Z,98660.56
2023-01-11T14:53:52.131Z,98644.31
2023-01-11T14:56:36.592Z,98667.00
2023-01-11T14:59:06.638Z,98658.75
2023-01-11T15:07:54.356Z,98632.91
2023-01-11T15:10:52.914Z,98651.88
2023-01-11T15:20:10.597Z,98642.81
2023-01-11T15:22:39.188Z,98655.94
2023-01-11T15:28:35.076Z,98696.63
2023-01-11T15:31:44.043Z,98665.47
2023-01-11T15:34:44.501Z,98671.34
2023-01-11T15:37:39.590Z,98667.22
2023-01-11T15:40:19.371Z,98647.75
2023-01-11T15:43:09.166Z,98652.47
2023-01-11T15:46:16.829Z,98658.44
2023-01-11T15:49:11.897Z,98653.09
2023-01-11T15:52:35.303Z,98662.66
2023-01-11T15:55:22.272Z,98648.47
2023-01-11T16:01:12.617Z,98664.81
2023-01-11T16:04:02.333Z,98674.78
2023-01-11T16:06:37.352Z,98688.28
2023-01-11T16:09:27.553Z,98692.22
2023-01-11T16:12:14.074Z,98686.25
2023-01-11T16:15:10.125Z,98702.59
2023-01-11T16:17:42.150Z,98697.47
2023-01-11T16:20:19.064Z,98705.41
2023-01-11T16:22:52.166Z,98698.25
2023-01-11T16:25:21.914Z,98709.13
2023-01-11T16:27:55.566Z,98705.69
2023-01-11T16:30:24.439Z,98710.56
2023-01-11T16:32:52.680Z,98714.56
2023-01-11T16:35:25.742Z,98709.00
2023-01-11T16:38:00.327Z,98719.00
2023-01-11T16:40:36.814Z,98708.84
2023-01-11T16:43:19.535Z,98709.81
2023-01-11T16:45:54.158Z,98721.53
2023-01-11T16:48:24.339Z,98721.66
2023-01-11T16:51:04.538Z,98715.09
2023-01-11T16:53:35.393Z,98714.38
2023-01-11T16:56:13.257Z,98728.81
2023-01-11T16:58:41.719Z,98720.44
2023-01-11T17:01:12.969Z,98722.66
2023-01-11T17:03:50.992Z,98714.38
2023-01-11T17:06:21.715Z,98717.44
2023-01-11T17:11:50.595Z,98710.75
2023-01-11T17:14:32.417Z,98711.56
2023-01-11T17:17:07.650Z,98704.59
2023-01-11T17:19:41.819Z,98702.25
2023-01-11T17:22:30.357Z,98710.63
2023-01-11T17:25:05.503Z,98726.91
2023-01-11T17:27:40.713Z,98731.03
2023-01-11T17:30:18.352Z,98734.41
2023-01-11T17:32:51.322Z,98744.25
2023-01-11T17:35:21.668Z,98743.06
2023-01-11T17:37:53.339Z,98759.88
2023-01-11T17:40:29.777Z,98750.22
2023-01-11T17:43:22.332Z,98756.91
2023-01-11T17:45:58.468Z,98761.94
2023-01-11T17:48:27.718Z,98749.25
2023-01-11T17:51:00.974Z,98750.22
2023-01-11T17:53:32.413Z,98755.91
2023-01-11T17:56:05.673Z,98750.66
2023-01-11T17:58:37.750Z,98767.00
2023-01-11T18:01:08.665Z,98756.09
2023-01-11T18:03:44.265Z,98758.41
2023-01-11T18:06:42.586Z,98775.75
2023-01-11T18:09:47.116Z,98768.97
2023-01-11T18:12:20.979Z,98764.16
2023-01-11T18:14:51.850Z,98773.72
2023-01-11T18:17:42.415Z,98776.25
2023-01-11T18:23:39.672Z,98778.91
2023-01-11T18:26:29.303Z,98765.91
2023-01-11T18:28:57.264Z,98761.94
2023-01-11T18:31:25.368Z,98783.47
2023-01-11T18:33:53.256Z,98777.53
2023-01-11T18:36:24.398Z,98782.69
2023-01-11T18:38:52.397Z,98790.53
2023-01-11T18:41:39.090Z,98790.72
2023-01-11T18:44:09.150Z,98792.25
2023-01-11T18:46:38.534Z,98796.56
2023-01-11T18:49:07.960Z,98792.69
2023-01-11T18:51:41.786Z,98798.84
2023-01-11T18:54:16.695Z,98795.09
2023-01-11T18:56:45.707Z,98803.28
2023-01-11T18:59:17.490Z,98806.81
2023-01-11T19:01:56.591Z,98802.91
2023-01-11T19:04:32.753Z,98812.53
2023-01-11T19:07:01.420Z,98816.06
2023-01-11T19:09:30.148Z,98819.41
2023-01-11T19:11:58.133Z,98816.69
2023-01-11T19:14:28.067Z,98818.41
2023-01-11T19:16:56.130Z,98819.22
2023-01-11T19:25:11.367Z,98846.25
2023-01-11T19:27:39.343Z,98847.03
2023-01-11T19:30:07.894Z,98849.16
2023-01-11T19:32:35.864Z,98856.31
2023-01-11T19:35:04.117Z,98858.97
2023-01-11T19:37:32.862Z,98852.34
2023-01-11T19:40:00.797Z,98866.84
2023-01-11T19:42:28.688Z,98865.44
2023-01-11T19:44:56.615Z,98877.50
2023-01-11T19:47:24.587Z,98870.06
2023-01-11T19:49:56.513Z,98866.38
2023-01-11T19:52:24.620Z,98877.06
2023-01-11T19:54:54.923Z,98867.06
2023-01-11T19:57:23.242Z,98882.28
2023-01-11T19:59:51.597Z,98887.59
2023-01-11T20:02:21.288Z,98897.09
2023-01-11T20:04:49.356Z,98900.69
2023-01-11T20:07:18.585Z,98884.72
2023-01-11T20:09:47.375Z,98900.38
2023-01-11T20:12:17.028Z,98900.97
2023-01-11T20:14:49.101Z,98898.22
2023-01-11T20:17:24.500Z,98904.28
2023-01-11T20:20:00.708Z,98906.50
2023-01-11T20:22:32.613Z,98907.72
2023-01-11T20:25:01.249Z,98908.03
2023-01-11T20:27:29.857Z,98913.78
2023-01-11T20:29:58.434Z,98914.88
2023-01-11T20:32:40.799Z,98906.78
2023-01-11T20:35:11.179Z,98898.03
2023-01-11T20:37:39.343Z,98927.09
2023-01-11T20:40:07.827Z,98917.72
2023-01-11T20:42:38.369Z,98916.06
2023-01-11T20:45:07.258Z,98908.75
2023-01-11T20:47:35.172Z,98919.56
2023-01-11T20:50:04.373Z,98902.97
2023-01-11T20:52:33.268Z,98904.56
2023-01-11T20:55:11.457Z,98922.81
2023-01-11T20:57:40.172Z,98925.56
2023-01-11T21:02:38.127Z,98924.13
2023-01-11T21:05:08.476Z,98921.84
2023-01-11T21:07:36.381Z,98929.66
2023-01-11T21:10:04.577Z,98934.13
2023-01-11T21:12:33.562Z,98935.84
2023-01-11T21:15:02.145Z,98928.69
2023-01-11T21:17:30.133Z,98927.81
2023-01-11T21:19:58.045Z,98928.69
2023-01-11T21:22:50.571Z,98927.91
2023-01-11T21:25:19.708Z,98947.75
2023-01-11T21:27:49.071Z,98944.44
2023-01-11T21:30:17.486Z,98949.09
2023-01-11T21:35:39.502Z,98944.44
2023-01-11T21:38:07.353Z,98945.69
2023-01-11T21:40:35.229Z,98949.59
2023-01-11T21:43:05.195Z,98944.00
2023-01-11T21:45:34.753Z,98946.59
2023-01-11T21:48:02.644Z,98942.16
2023-01-11T21:50:31.084Z,98941.69
2023-01-11T21:52:59.471Z,98954.78
2023-01-11T21:55:31.027Z,98955.38
2023-01-11T21:57:58.989Z,98950.72
2023-01-11T22:00:29.557Z,98968.28
2023-01-11T22:02:57.962Z,98959.81
2023-01-11T22:05:25.871Z,98946.72
2023-01-11T22:07:54.389Z,98964.22
2023-01-11T22:10:22.419Z,98950.19
2023-01-11T22:12:50.536Z,98966.22
2023-01-11T22:15:18.613Z,98967.41
2023-01-11T22:17:46.442Z,98972.50
2023-01-11T22:20:15.450Z,98977.38
2023-01-11T22:22:43.976Z,98971.63
2023-01-11T22:25:11.827Z,98978.25
2023-01-11T22:27:39.830Z,98977.44
2023-01-11T22:30:08.517Z,98978.44
2023-01-11T22:32:39.550Z,98983.38
2023-01-11T22:35:32.848Z,98992.78
2023-01-11T22:40:54.654Z,98991.03
2023-01-11T22:43:22.615Z,98996.31
2023-01-11T22:45:58.176Z,98993.28
2023-01-11T22:48:26.269Z,98989.53
2023-01-11T22:50:55.203Z,98988.78
2023-01-11T22:53:23.193Z,98995.91
2023-01-11T22:56:01.291Z,98996.22
2023-01-11T22:58:31.517Z,99001.97
2023-01-11T23:01:19.274Z,98999.34
2023-01-11T23:03:52.803Z,98965.66
2023-01-11T23:06:27.215Z,98973.06
2023-01-11T23:08:56.899Z,98993.81
2023-01-11T23:11:45.874Z,98986.84
2023-01-11T23:14:17.431Z,98985.06
2023-01-11T23:16:48.132Z,98991.59
2023-01-11T23:19:19.419Z,98980.09
2023-01-11T23:21:48.446Z,98989.03
2023-01-11T23:27:10.579Z,98994.56
2023-01-11T23:29:40.133Z,98986.41
2023-01-11T23:35:00.020Z,98999.16
2023-01-11T23:37:27.899Z,98994.78
2023-01-11T23:39:55.786Z,98989.75
2023-01-11T23:42:27.548Z,98995.25
2023-01-11T23:44:57.218Z,98986.84
2023-01-11T23:47:30.436Z,98987.91
2023-01-11T23:50:00.822Z,98995.97
2023-01-11T23:52:33.444Z,98982.22
2023-01-11T23:55:05.686Z,98971.00
2023-01-11T23:57:35.391Z,98996.34
